Time;durP1;ratioP1;P1;durP2;ratioP2;P2;SDS_P1;SDS_P2;PMS_P1;PMS_P2;Temp;Humidity;BMP_temperature;BMP_pressure;BME280_temperature;BME280_humidity;BME280_pressure;Samples;Min_cycle;Max_cycle;Signal;HPM_P1;HPM_P2
2022/06/04 00:00:21;;;;;;;12.23;5.00;;;13.10;99.90;;;;;;5048950;28;20410;-78
2022/06/04 00:02:48;;;;;;;11.13;4.63;;;13.20;99.90;;;;;;5045632;28;20055;-78
2022/06/04 00:05:18;;;;;;;9.18;4.72;;;13.10;99.90;;;;;;5049474;28;20048;-78
2022/06/04 00:07:44;;;;;;;12.02;5.32;;;13.00;99.90;;;;;;5050516;28;20044;-78
2022/06/04 00:15:59;;;;;;;9.43;4.65;;;12.90;99.90;;;;;;5047002;28;20041;-78
2022/06/04 00:18:26;;;;;;;8.98;4.75;;;12.90;99.90;;;;;;5031630;28;20454;-78
2022/06/04 00:20:53;;;;;;;10.82;4.63;;;12.90;99.90;;;;;;5033891;28;20372;-78
2022/06/04 00:23:20;;;;;;;13.00;5.10;;;12.90;99.90;;;;;;5049819;28;20045;-78
2022/06/04 00:25:50;;;;;;;14.63;5.68;;;12.90;99.90;;;;;;5044841;28;20064;-79
2022/06/04 00:28:17;;;;;;;10.40;4.97;;;12.90;99.90;;;;;;5049518;28;20435;-78
2022/06/04 00:30:43;;;;;;;11.73;5.72;;;12.90;99.90;;;;;;5048505;28;20045;-78
2022/06/04 00:33:09;;;;;;;11.18;4.80;;;12.80;99.90;;;;;;5048489;28;20060;-78
2022/06/04 00:35:35;;;;;;;12.05;5.95;;;12.80;99.90;;;;;;5048499;28;20095;-78
2022/06/04 00:38:03;;;;;;;11.82;5.65;;;12.70;99.90;;;;;;5049720;28;20098;-78
2022/06/04 00:40:53;;;;;;;13.52;6.00;;;12.70;99.90;;;;;;5031736;28;20514;-78
2022/06/04 00:43:20;;;;;;;12.45;6.35;;;12.70;99.90;;;;;;5046360;28;20503;-78
2022/06/04 00:46:23;;;;;;;15.77;6.20;;;12.60;99.90;;;;;;5048737;28;20072;-78
2022/06/04 00:48:49;;;;;;;10.43;6.32;;;12.60;99.90;;;;;;5042402;28;20529;-78
2022/06/04 00:51:14;;;;;;;13.57;7.72;;;12.50;99.90;;;;;;5050273;28;20041;-78
2022/06/04 00:53:41;;;;;;;10.13;6.10;;;12.50;99.90;;;;;;5048724;28;20043;-78
2022/06/04 00:56:25;;;;;;;16.27;6.05;;;12.50;99.90;;;;;;5048521;28;20044;-78
2022/06/04 00:59:15;;;;;;;12.50;6.57;;;12.50;99.90;;;;;;5037062;28;20080;-78
2022/06/04 01:02:15;;;;;;;9.18;6.25;;;12.40;99.90;;;;;;5065424;28;20044;-79
2022/06/04 01:05:09;;;;;;;11.70;6.38;;;12.40;99.90;;;;;;5048608;28;20037;-78
2022/06/04 01:07:55;;;;;;;12.30;6.07;;;12.40;99.90;;;;;;5048188;28;20044;-79
2022/06/04 01:10:47;;;;;;;12.32;6.60;;;12.40;99.90;;;;;;5047374;28;20495;-78
2022/06/04 01:13:28;;;;;;;14.02;6.55;;;12.40;99.90;;;;;;5048605;28;20137;-79
2022/06/04 01:16:15;;;;;;;10.88;6.32;;;12.40;99.90;;;;;;5047745;28;20045;-78
2022/06/04 01:19:14;;;;;;;12.75;6.53;;;12.40;99.90;;;;;;5046972;28;20580;-79
2022/06/04 01:22:02;;;;;;;13.95;6.60;;;12.30;99.90;;;;;;5050487;28;20044;-78
2022/06/04 01:24:57;;;;;;;12.20;6.88;;;12.40;99.90;;;;;;5048947;28;20040;-78
2022/06/04 01:27:26;;;;;;;;;;;12.30;99.90;;;;;;5039392;28;20049;-78
2022/06/04 01:29:57;;;;;;;12.38;5.93;;;12.30;99.90;;;;;;5047827;28;19940;-79
2022/06/04 01:32:43;;;;;;;9.95;5.38;;;12.30;99.90;;;;;;5031723;28;20120;-79
2022/06/04 01:35:21;;;;;;;10.90;6.15;;;12.30;99.90;;;;;;5048302;28;20449;-79
2022/06/04 01:37:58;;;;;;;11.65;5.82;;;12.20;99.90;;;;;;5041207;28;20041;-78
2022/06/04 01:43:17;;;;;;;11.48;6.13;;;12.10;99.90;;;;;;5048221;28;20506;-80
2022/06/04 01:45:45;;;;;;;10.85;6.10;;;12.10;99.90;;;;;;5036313;28;20068;-79
2022/06/04 01:48:14;;;;;;;11.73;6.70;;;12.10;99.90;;;;;;5052579;28;20060;-79
2022/06/04 01:50:45;;;;;;;13.52;6.22;;;12.00;99.90;;;;;;5052787;28;20086;-79
2022/06/04 01:53:14;;;;;;;10.88;5.80;;;12.00;99.90;;;;;;5050513;28;20127;-79
2022/06/04 01:55:49;;;;;;;10.85;6.20;;;12.00;99.90;;;;;;5053343;28;20450;-79
2022/06/04 01:58:29;;;;;;;15.70;5.85;;;11.90;99.90;;;;;;5048636;28;20399;-80
2022/06/04 02:01:04;;;;;;;14.10;6.30;;;11.90;99.90;;;;;;5030382;28;20040;-79
2022/06/04 02:03:38;;;;;;;11.32;6.25;;;11.90;99.90;;;;;;5047886;28;20044;-79
2022/06/04 02:06:15;;;;;;;12.57;6.07;;;11.80;99.90;;;;;;5046728;28;20066;-79
2022/06/04 02:08:47;;;;;;;11.38;6.00;;;11.90;99.90;;;;;;5031162;28;20045;-79
2022/06/04 02:11:19;;;;;;;13.32;6.25;;;11.80;99.90;;;;;;5046473;28;20529;-79
2022/06/04 02:13:47;;;;;;;8.60;5.38;;;11.70;99.90;;;;;;5045763;28;20045;-79
2022/06/04 02:16:26;;;;;;;14.07;7.07;;;11.70;99.90;;;;;;5046316;28;20556;-79
2022/06/04 02:18:52;;;;;;;12.85;5.85;;;11.70;99.90;;;;;;5045626;28;20044;-78
2022/06/04 02:21:18;;;;;;;9.73;6.00;;;11.70;99.90;;;;;;5047348;28;20045;-79
2022/06/04 02:23:46;;;;;;;14.90;5.90;;;11.70;99.90;;;;;;5047424;28;20413;-78
2022/06/04 02:26:12;;;;;;;8.32;5.63;;;11.70;99.90;;;;;;5048499;28;20511;-79
2022/06/04 02:28:37;;;;;;;13.23;6.30;;;11.70;99.90;;;;;;5047144;28;20046;-79
2022/06/04 02:31:29;;;;;;;9.85;5.75;;;11.70;99.90;;;;;;5046475;28;20491;-80
2022/06/04 02:34:09;;;;;;;12.35;6.00;;;11.70;99.90;;;;;;5045062;28;20835;-78
2022/06/04 02:36:43;;;;;;;11.23;5.68;;;11.70;99.90;;;;;;5045532;28;20041;-79
2022/06/04 02:39:20;;;;;;;14.18;5.82;;;11.80;99.90;;;;;;5045750;28;20045;-79
2022/06/04 02:42:00;;;;;;;12.48;5.55;;;11.80;99.90;;;;;;5028768;28;20094;-78
2022/06/04 02:44:38;;;;;;;13.85;6.45;;;11.80;99.90;;;;;;5045609;28;21691;-78
2022/06/04 02:47:10;;;;;;;8.05;5.25;;;11.80;99.90;;;;;;5045210;28;20041;-79
2022/06/04 02:49:47;;;;;;;9.52;6.05;;;11.80;99.90;;;;;;5046032;28;20047;-78
2022/06/04 02:52:15;;;;;;;13.93;6.40;;;11.80;99.90;;;;;;5044573;28;20043;-78
2022/06/04 02:54:50;;;;;;;13.82;6.25;;;11.90;99.90;;;;;;5046091;28;20526;-79
2022/06/04 02:57:17;;;;;;;10.85;6.70;;;11.80;99.90;;;;;;5046083;28;20036;-77
2022/06/04 02:59:45;;;;;;;17.63;6.82;;;11.90;99.90;;;;;;5045883;28;20033;-79
2022/06/04 03:02:14;;;;;;;13.02;6.63;;;11.90;99.90;;;;;;5045472;28;20399;-79
2022/06/04 03:04:47;;;;;;;10.60;6.88;;;11.90;99.90;;;;;;5045245;28;20151;-77
2022/06/04 03:07:13;;;;;;;9.82;6.20;;;11.90;99.90;;;;;;5046863;28;20041;-78
2022/06/04 03:09:39;;;;;;;10.23;6.13;;;11.90;99.90;;;;;;5046796;28;20033;-79
2022/06/04 03:12:06;;;;;;;11.15;6.10;;;11.80;99.90;;;;;;5046099;28;20603;-78
2022/06/04 03:14:31;;;;;;;8.20;5.75;;;11.80;99.90;;;;;;5045602;28;20029;-79
2022/06/04 03:16:57;;;;;;;10.98;6.22;;;11.80;99.90;;;;;;5047032;28;20040;-79
2022/06/04 03:19:22;;;;;;;10.32;6.05;;;11.80;99.90;;;;;;5044532;28;20037;-79
2022/06/04 03:21:48;;;;;;;10.35;5.60;;;11.80;99.90;;;;;;5046155;28;20132;-78
2022/06/04 03:24:14;;;;;;;9.95;5.63;;;11.70;99.90;;;;;;5028584;28;20040;-79
2022/06/04 03:26:41;;;;;;;12.10;5.75;;;11.70;99.90;;;;;;5045682;28;20032;-79
2022/06/04 03:29:07;;;;;;;10.30;5.85;;;11.60;99.90;;;;;;5046204;28;20094;-79
2022/06/04 03:31:33;;;;;;;10.40;5.70;;;11.60;99.90;;;;;;5045656;28;20041;-79
2022/06/04 03:33:59;;;;;;;10.93;5.28;;;11.60;99.90;;;;;;5043661;28;20502;-79
2022/06/04 03:36:27;;;;;;;7.05;4.88;;;11.50;99.90;;;;;;5044736;28;20051;-79
2022/06/04 03:38:57;;;;;;;7.72;5.25;;;11.50;99.90;;;;;;5046239;28;20032;-79
2022/06/04 03:41:24;;;;;;;10.82;5.50;;;11.50;99.90;;;;;;5045652;28;21032;-79
2022/06/04 03:43:52;;;;;;;8.77;5.05;;;11.50;99.90;;;;;;5044132;28;20079;-79
2022/06/04 03:46:19;;;;;;;10.23;5.03;;;11.40;99.90;;;;;;5044209;28;20075;-78
2022/06/04 03:48:45;;;;;;;9.20;4.85;;;11.40;99.90;;;;;;5044873;28;20048;-78
2022/06/04 03:51:10;;;;;;;7.00;5.00;;;11.40;99.90;;;;;;5044639;28;20040;-78
2022/06/04 03:53:36;;;;;;;9.40;5.03;;;11.50;99.90;;;;;;5046463;28;20515;-78
2022/06/04 03:56:02;;;;;;;8.85;4.75;;;11.50;99.90;;;;;;5044382;28;20449;-78
2022/06/04 03:58:30;;;;;;;11.57;4.60;;;11.50;99.90;;;;;;5029169;28;20099;-78
2022/06/04 04:00:57;;;;;;;8.45;4.57;;;11.50;99.90;;;;;;5044056;28;20081;-79
2022/06/04 04:03:23;;;;;;;7.53;4.43;;;11.50;99.90;;;;;;5060371;28;20455;-79
2022/06/04 04:05:57;;;;;;;7.18;4.20;;;11.50;99.90;;;;;;5027814;28;20066;-78
2022/06/04 04:08:25;;;;;;;8.13;4.35;;;11.50;99.90;;;;;;5028841;28;20036;-78
2022/06/04 04:10:50;;;;;;;10.75;4.68;;;11.50;99.90;;;;;;5045271;28;20510;-79
2022/06/04 04:13:18;;;;;;;8.93;4.40;;;11.60;99.90;;;;;;5045733;28;20071;-79
2022/06/04 04:15:43;;;;;;;6.88;3.95;;;11.60;99.90;;;;;;5044768;28;20068;-78
2022/06/04 04:18:10;;;;;;;8.05;4.70;;;11.60;99.90;;;;;;5044684;28;20530;-78
2022/06/04 04:20:37;;;;;;;7.60;4.05;;;11.70;99.90;;;;;;5045452;28;20509;-80
2022/06/04 04:23:06;;;;;;;8.35;3.92;;;11.70;99.90;;;;;;5045140;28;20041;-80
2022/06/04 04:25:32;;;;;;;7.05;4.38;;;11.80;99.90;;;;;;5043518;28;20094;-78
2022/06/04 04:27:59;;;;;;;7.78;4.30;;;11.80;99.90;;;;;;5044979;28;20044;-78
2022/06/04 04:30:29;;;;;;;8.30;4.32;;;11.90;99.90;;;;;;5044569;28;20037;-77
2022/06/04 04:32:56;;;;;;;9.77;4.43;;;11.90;99.90;;;;;;5044528;28;20205;-78
2022/06/04 04:35:24;;;;;;;6.90;4.03;;;11.90;99.90;;;;;;5043924;28;20076;-77
2022/06/04 04:37:51;;;;;;;7.57;4.13;;;11.90;99.90;;;;;;5043809;28;20136;-78
2022/06/04 04:40:20;;;;;;;8.25;4.22;;;12.00;99.90;;;;;;5044486;28;20041;-79
2022/06/04 04:42:48;;;;;;;9.77;4.22;;;12.10;99.90;;;;;;5028094;28;20033;-78
2022/06/04 04:45:15;;;;;;;9.32;4.40;;;12.10;99.90;;;;;;5041816;28;20478;-78
2022/06/04 04:47:43;;;;;;;8.75;4.60;;;12.20;99.90;;;;;;5043456;28;20410;-77
2022/06/04 04:50:18;;;;;;;5.05;4.10;;;12.20;99.90;;;;;;5044519;28;20036;-77
2022/06/04 04:52:45;;;;;;;8.80;4.30;;;12.30;99.90;;;;;;5027342;28;20044;-78
2022/06/04 04:55:10;;;;;;;7.55;4.25;;;12.30;99.90;;;;;;5043620;28;20080;-77
2022/06/04 04:57:36;;;;;;;8.60;4.13;;;12.30;99.90;;;;;;5045248;28;20474;-78
2022/06/04 05:00:04;;;;;;;7.75;4.07;;;12.40;99.90;;;;;;5045319;28;20123;-79
2022/06/04 05:02:30;;;;;;;8.23;4.10;;;12.50;99.90;;;;;;5043710;28;20033;-78
2022/06/04 05:04:56;;;;;;;6.97;3.85;;;12.60;99.90;;;;;;5043800;28;20469;-78
2022/06/04 05:07:21;;;;;;;8.98;4.55;;;12.60;99.90;;;;;;5025526;28;20060;-77
2022/06/04 05:09:47;;;;;;;6.85;4.20;;;12.70;99.90;;;;;;5044272;28;20060;-78
2022/06/04 05:12:12;;;;;;;6.28;4.50;;;12.80;99.90;;;;;;5059383;28;20095;-78
2022/06/04 05:14:38;;;;;;;7.75;4.13;;;12.80;99.90;;;;;;5028316;28;20037;-78
2022/06/04 05:17:04;;;;;;;6.72;4.18;;;12.90;99.90;;;;;;5048160;28;20522;-78
2022/06/04 05:19:31;;;;;;;5.95;4.40;;;13.00;99.90;;;;;;5047629;28;20152;-77
2022/06/04 05:21:57;;;;;;;6.07;4.43;;;13.10;99.90;;;;;;5047889;28;20065;-78
2022/06/04 05:24:26;;;;;;;6.93;4.20;;;13.10;99.90;;;;;;5047737;28;20041;-78
2022/06/04 05:26:52;;;;;;;7.55;4.07;;;13.20;99.90;;;;;;5047443;28;20407;-77
2022/06/04 05:29:18;;;;;;;7.13;4.15;;;13.20;99.90;;;;;;5046059;28;20033;-77
2022/06/04 05:31:45;;;;;;;9.20;4.65;;;13.30;99.90;;;;;;5047873;28;20029;-78
2022/06/04 05:34:12;;;;;;;9.38;4.30;;;13.30;99.90;;;;;;5046148;28;20102;-77
2022/06/04 05:36:38;;;;;;;8.45;4.18;;;13.40;99.90;;;;;;5047546;28;20418;-78
2022/06/04 05:39:06;;;;;;;8.57;4.35;;;13.50;99.90;;;;;;5047867;28;20048;-78
2022/06/04 05:41:31;;;;;;;7.00;4.32;;;13.50;99.90;;;;;;5047545;28;20455;-78
2022/06/04 05:43:57;;;;;;;8.05;4.25;;;13.60;99.90;;;;;;5047478;28;20063;-77
2022/06/04 05:46:23;;;;;;;6.57;3.97;;;13.70;99.90;;;;;;5030093;28;20033;-77
2022/06/04 05:48:49;;;;;;;8.43;4.18;;;13.70;99.90;;;;;;5047757;28;20138;-77
2022/06/04 05:51:23;;;;;;;6.63;4.40;;;13.80;99.90;;;;;;5046107;28;20041;-77
2022/06/04 05:53:49;;;;;;;;;;;13.90;99.90;;;;;;5046596;28;20048;-78
2022/06/04 05:56:21;;;;;;;9.65;4.32;;;14.00;99.90;;;;;;5049373;28;19917;-77
2022/06/04 05:58:50;;;;;;;5.85;4.30;;;14.00;99.90;;;;;;5052007;28;20041;-78
2022/06/04 06:01:18;;;;;;;7.03;4.60;;;14.00;99.90;;;;;;5034371;28;20486;-78
2022/06/04 06:03:44;;;;;;;7.13;4.50;;;13.90;99.90;;;;;;5049186;28;20045;-77
2022/06/04 06:06:18;;;;;;;6.45;4.53;;;13.90;99.90;;;;;;5052346;28;20033;-78
2022/06/04 06:08:44;;;;;;;8.18;4.88;;;14.00;99.90;;;;;;5033036;28;20048;-77
2022/06/04 06:11:13;;;;;;;8.57;4.80;;;14.00;99.90;;;;;;5047066;28;20045;-78
2022/06/04 06:13:40;;;;;;;6.25;4.68;;;14.10;99.90;;;;;;5051342;28;20036;-78
2022/06/04 06:16:20;;;;;;;7.93;4.57;;;14.20;99.90;;;;;;5049385;28;20048;-76
2022/06/04 06:18:45;;;;;;;10.00;4.50;;;14.40;99.90;;;;;;5049734;28;20479;-77
2022/06/04 06:21:14;;;;;;;7.80;4.57;;;14.50;99.90;;;;;;5050114;28;20178;-78
2022/06/04 06:23:40;;;;;;;9.65;4.32;;;14.70;99.90;;;;;;5049741;28;20048;-77
2022/06/04 06:26:16;;;;;;;6.40;4.68;;;14.90;99.90;;;;;;5036129;28;20037;-78
2022/06/04 06:28:43;;;;;;;7.13;4.70;;;15.10;99.90;;;;;;5046034;28;20056;-77
2022/06/04 06:31:13;;;;;;;6.13;4.20;;;15.20;99.90;;;;;;5030775;28;20049;-78
2022/06/04 06:33:38;;;;;;;6.80;4.25;;;15.30;99.90;;;;;;5030361;28;20044;-77
2022/06/04 06:36:07;;;;;;;6.93;4.30;;;15.30;99.90;;;;;;5030374;28;20049;-77
2022/06/04 06:38:33;;;;;;;7.80;4.78;;;15.30;99.90;;;;;;5030509;28;20041;-77
2022/06/04 06:40:59;;;;;;;6.05;4.30;;;15.20;99.90;;;;;;5030417;28;20037;-76
2022/06/04 06:43:36;;;;;;;6.32;4.70;;;15.20;99.90;;;;;;5030545;28;20034;-79
2022/06/04 06:46:09;;;;;;;7.65;4.15;;;15.00;99.90;;;;;;5032565;28;20037;-78
2022/06/04 06:48:36;;;;;;;5.32;4.18;;;15.10;99.90;;;;;;5030585;28;20056;-78
2022/06/04 06:51:11;;;;;;;7.05;4.28;;;15.20;99.90;;;;;;5031226;28;20037;-79
2022/06/04 06:53:37;;;;;;;5.85;4.30;;;15.40;99.90;;;;;;5029694;28;20037;-78
2022/06/04 06:56:19;;;;;;;9.38;4.50;;;15.50;99.90;;;;;;5034632;28;20039;-79
2022/06/04 06:58:46;;;;;;;6.53;4.20;;;15.40;99.90;;;;;;5047574;28;20044;-78
2022/06/04 07:01:12;;;;;;;6.88;4.30;;;15.40;99.90;;;;;;5036534;28;20025;-77
2022/06/04 07:03:39;;;;;;;6.45;4.35;;;15.50;99.90;;;;;;5030799;28;20033;-78
2022/06/04 07:06:07;;;;;;;7.55;4.50;;;15.60;99.90;;;;;;5034263;28;20406;-78
2022/06/04 07:08:34;;;;;;;6.00;3.92;;;15.70;99.90;;;;;;5035464;28;20037;-78
2022/06/04 07:10:59;;;;;;;6.30;4.15;;;15.90;99.90;;;;;;5036994;28;20380;-78
2022/06/04 07:13:25;;;;;;;6.25;3.90;;;16.00;99.90;;;;;;5050114;28;20068;-80
2022/06/04 07:15:52;;;;;;;6.00;4.07;;;15.90;99.90;;;;;;5031931;28;20416;-78
2022/06/04 07:18:18;;;;;;;4.45;3.83;;;16.20;99.90;;;;;;5014180;28;20034;-79
2022/06/04 07:20:44;;;;;;;8.27;4.72;;;16.30;99.90;;;;;;5017070;28;20029;-78
2022/06/04 07:23:10;;;;;;;5.88;4.53;;;16.50;99.90;;;;;;5053010;28;20132;-77
2022/06/04 07:25:37;;;;;;;5.90;4.13;;;16.50;99.90;;;;;;5030670;28;20195;-78
2022/06/04 07:28:04;;;;;;;6.90;4.20;;;16.60;99.90;;;;;;5066292;28;20048;-78
2022/06/04 07:30:29;;;;;;;5.05;3.45;;;16.60;99.90;;;;;;5051274;28;20041;-79
2022/06/04 07:32:55;;;;;;;8.07;4.47;;;16.70;99.90;;;;;;5050984;28;20048;-78
2022/06/04 07:35:21;;;;;;;6.18;4.38;;;16.80;99.90;;;;;;5050511;28;20079;-78
2022/06/04 07:37:46;;;;;;;5.10;4.07;;;16.90;99.90;;;;;;5049113;28;20406;-78
2022/06/04 07:40:12;;;;;;;6.95;4.07;;;17.00;99.90;;;;;;5048071;28;20041;-78
2022/06/04 07:42:38;;;;;;;6.68;4.30;;;17.10;99.90;;;;;;5045677;28;20091;-78
2022/06/04 07:45:05;;;;;;;9.18;4.20;;;17.20;99.90;;;;;;5041881;28;20120;-79
2022/06/04 07:47:31;;;;;;;5.95;4.00;;;17.30;99.90;;;;;;5060060;28;20476;-79
2022/06/04 07:49:57;;;;;;;6.28;3.90;;;17.40;99.90;;;;;;5051478;28;20060;-79
2022/06/04 07:52:23;;;;;;;9.18;4.28;;;17.40;99.90;;;;;;5051122;28;20049;-79
2022/06/04 07:54:48;;;;;;;5.95;3.75;;;17.50;99.90;;;;;;5050248;28;20072;-80
2022/06/04 07:57:14;;;;;;;4.82;3.80;;;17.60;99.90;;;;;;5034365;28;20050;-79
2022/06/04 07:59:40;;;;;;;5.80;3.47;;;17.60;99.90;;;;;;5050957;28;20041;-78
2022/06/04 08:02:05;;;;;;;5.22;3.45;;;17.70;99.90;;;;;;5050990;28;20036;-80
2022/06/04 08:04:31;;;;;;;5.18;3.20;;;17.80;99.90;;;;;;5050397;28;20033;-78
2022/06/04 08:06:57;;;;;;;4.78;3.28;;;17.90;99.90;;;;;;5050792;28;20523;-78
2022/06/04 08:09:22;;;;;;;6.68;3.60;;;18.00;99.90;;;;;;5034118;28;20037;-77
2022/06/04 08:11:48;;;;;;;5.22;3.50;;;18.00;99.90;;;;;;5050598;28;20048;-79
2022/06/04 08:14:21;;;;;;;5.07;3.40;;;18.10;99.90;;;;;;5051308;28;20036;-79
2022/06/04 08:16:53;;;;;;;4.63;3.70;;;18.10;99.90;;;;;;5051198;28;20553;-78
2022/06/04 08:19:20;;;;;;;6.15;3.45;;;18.10;99.90;;;;;;5050468;28;20300;-79
2022/06/04 08:21:46;;;;;;;5.40;3.53;;;18.10;99.90;;;;;;5051198;28;20521;-78
2022/06/04 08:24:13;;;;;;;5.50;3.75;;;18.10;99.90;;;;;;5049663;28;20083;-78
2022/06/04 08:26:41;;;;;;;5.30;3.58;;;18.20;99.90;;;;;;5050772;28;20055;-78
2022/06/04 08:29:07;;;;;;;6.05;3.58;;;18.40;99.90;;;;;;5050458;28;20131;-78
2022/06/04 08:31:33;;;;;;;5.07;3.40;;;18.50;99.90;;;;;;5050600;28;20072;-78
2022/06/04 08:33:59;;;;;;;5.15;3.42;;;18.50;99.90;;;;;;5032840;28;20402;-78
2022/06/04 08:36:25;;;;;;;6.22;3.40;;;18.50;99.90;;;;;;5050268;28;20052;-79
2022/06/04 08:38:51;;;;;;;6.05;3.50;;;18.60;99.90;;;;;;5050535;28;20047;-79
2022/06/04 08:41:22;;;;;;;4.55;3.30;;;18.60;99.90;;;;;;5033704;28;20025;-79
2022/06/04 08:43:49;;;;;;;7.63;3.60;;;18.60;99.90;;;;;;5049958;28;20041;-79
2022/06/04 08:46:21;;;;;;;6.28;3.53;;;18.50;99.90;;;;;;5051004;28;20045;-79
2022/06/04 08:48:47;;;;;;;4.60;3.35;;;18.50;99.90;;;;;;5033886;28;20033;-78
2022/06/04 08:51:31;;;;;;;6.82;3.15;;;18.50;99.90;;;;;;5054754;28;20047;-79
2022/06/04 08:57:32;;;;;;;5.38;3.20;;;18.70;99.90;;;;;;5053107;28;20394;-79
2022/06/04 08:59:49;;;;;;;5.57;3.05;;;18.50;99.90;;;;;;5055437;28;20059;-79
2022/06/04 09:02:22;;;;;;;6.60;3.65;;;18.40;99.90;;;;;;5055158;28;20108;-79
2022/06/04 09:05:04;;;;;;;4.85;3.00;;;18.40;99.90;;;;;;5054862;28;20051;-81
2022/06/04 09:07:40;;;;;;;5.72;3.33;;;18.30;99.90;;;;;;5055886;28;20499;-80
2022/06/04 09:10:27;;;;;;;4.55;3.25;;;18.20;99.90;;;;;;5039124;28;20047;-80
2022/06/04 09:13:05;;;;;;;5.63;3.60;;;18.20;99.90;;;;;;5054853;28;20040;-79
2022/06/04 09:15:51;;;;;;;10.02;3.35;;;18.30;99.90;;;;;;5035565;28;20094;-80
2022/06/04 09:18:35;;;;;;;6.05;3.15;;;18.50;99.90;;;;;;5054299;28;20124;-80
2022/06/04 09:21:05;;;;;;;6.43;3.17;;;18.50;99.90;;;;;;5038804;28;20410;-82
2022/06/04 09:23:41;;;;;;;5.97;3.25;;;18.50;99.90;;;;;;5054955;28;20047;-81
2022/06/04 09:26:36;;;;;;;5.85;3.28;;;18.60;99.90;;;;;;5040421;28;20037;-80
2022/06/04 09:29:01;;;;;;;;;;;18.70;99.90;;;;;;5056598;28;20179;-80
2022/06/04 09:31:44;;;;;;;5.80;3.15;;;18.90;99.90;;;;;;5055418;28;20377;-79
2022/06/04 09:34:19;;;;;;;5.05;2.95;;;19.00;99.90;;;;;;5055465;28;20056;-80
2022/06/04 09:36:46;;;;;;;5.15;3.15;;;19.00;99.90;;;;;;5039716;28;20433;-81
2022/06/04 09:39:19;;;;;;;7.07;3.13;;;19.10;99.90;;;;;;5057787;28;20079;-80
2022/06/04 09:41:53;;;;;;;4.32;2.90;;;19.20;99.90;;;;;;5052788;28;20080;-81
2022/06/04 09:44:19;;;;;;;5.63;2.90;;;19.00;99.90;;;;;;5033819;28;20029;-82
2022/06/04 09:46:48;;;;;;;5.05;2.90;;;19.10;99.90;;;;;;5048927;28;20087;-80
2022/06/04 09:49:28;;;;;;;4.30;2.55;;;19.10;99.90;;;;;;5053325;28;20060;-80
2022/06/04 09:51:53;;;;;;;5.28;3.03;;;19.10;99.90;;;;;;5049475;28;20457;-81
2022/06/04 09:54:27;;;;;;;5.55;2.70;;;19.10;99.90;;;;;;5049278;28;20106;-80
2022/06/04 09:56:56;;;;;;;6.93;3.28;;;19.10;99.90;;;;;;5033426;28;20098;-80
2022/06/04 09:59:29;;;;;;;4.30;2.55;;;19.20;99.90;;;;;;5051183;28;20127;-82
2022/06/04 10:02:01;;;;;;;4.88;2.97;;;19.20;99.90;;;;;;5048846;28;20029;-83
2022/06/04 10:04:47;;;;;;;4.50;3.10;;;19.30;99.90;;;;;;5048783;28;20174;-83
2022/06/04 10:07:16;;;;;;;4.43;2.90;;;19.40;99.90;;;;;;5048020;28;20550;-81
2022/06/04 10:09:56;;;;;;;4.32;2.90;;;19.50;99.90;;;;;;5051385;28;20041;-82
2022/06/04 10:15:36;;;;;;;5.15;3.20;;;19.70;99.90;;;;;;5050063;28;20438;-82
2022/06/04 10:18:16;;;;;;;4.55;2.88;;;19.80;99.90;;;;;;5031419;28;20061;-83
2022/06/04 10:20:50;;;;;;;5.53;2.80;;;19.80;99.90;;;;;;5043696;28;20171;-83
2022/06/04 10:23:16;;;;;;;5.05;3.05;;;19.80;99.90;;;;;;5032375;28;20083;-83
2022/06/04 10:26:02;;;;;;;4.38;3.00;;;19.80;99.90;;;;;;5049793;28;20490;-82
2022/06/04 10:28:34;;;;;;;3.75;3.10;;;19.80;99.90;;;;;;5050658;28;20083;-82
2022/06/04 10:31:27;;;;;;;4.00;2.83;;;19.90;99.90;;;;;;5034809;28;20495;-82
2022/06/04 10:34:31;;;;;;;5.20;3.03;;;19.90;99.90;;;;;;5046132;28;20085;-85
2022/06/04 10:37:26;;;;;;;6.43;3.50;;;20.10;99.90;;;;;;5044249;28;20063;-81
2022/06/04 10:40:13;;;;;;;7.60;3.55;;;20.10;99.90;;;;;;5043492;28;20119;-83
2022/06/04 10:42:51;;;;;;;5.05;3.28;;;20.30;99.90;;;;;;5051793;28;20036;-84
2022/06/04 10:45:37;;;;;;;6.10;3.38;;;20.30;99.90;;;;;;5048407;28;20071;-85
2022/06/04 10:48:36;;;;;;;6.15;3.60;;;20.40;99.90;;;;;;5038639;28;20052;-82
2022/06/04 10:51:30;;;;;;;6.57;3.30;;;20.50;99.90;;;;;;5032141;28;20556;-82
2022/06/04 10:54:03;;;;;;;6.95;4.15;;;20.50;99.90;;;;;;5029363;28;20515;-82
2022/06/04 10:56:40;;;;;;;6.55;3.38;;;20.60;99.90;;;;;;5049816;28;20081;-85
2022/06/04 10:59:28;;;;;;;6.32;3.00;;;20.60;99.90;;;;;;5050751;28;20041;-85
2022/06/04 11:02:23;;;;;;;5.75;3.60;;;20.60;99.90;;;;;;5039961;28;20029;-83
2022/06/04 11:04:59;;;;;;;6.97;3.30;;;20.60;99.90;;;;;;5019032;28;20048;-85
2022/06/04 11:07:57;;;;;;;4.22;3.40;;;20.70;99.90;;;;;;5032339;28;20056;-84
2022/06/04 11:10:39;;;;;;;6.07;3.20;;;20.70;99.90;;;;;;5038116;28;20047;-83
2022/06/04 11:13:10;;;;;;;5.82;3.47;;;20.90;99.90;;;;;;5047516;28;20068;-83
2022/06/04 11:15:42;;;;;;;6.28;3.17;;;20.90;99.90;;;;;;5049885;28;20498;-84
2022/06/04 11:18:23;;;;;;;5.10;3.20;;;21.00;99.90;;;;;;5048566;28;20444;-84
2022/06/04 11:21:15;;;;;;;5.07;3.10;;;21.10;99.90;;;;;;5032743;28;20029;-84
2022/06/04 11:23:55;;;;;;;8.25;3.50;;;21.10;99.90;;;;;;5030536;28;20037;-85
2022/06/04 11:26:24;;;;;;;6.63;4.00;;;21.30;99.90;;;;;;5051469;28;20037;-83
2022/06/04 11:28:49;;;;;;;7.68;3.35;;;21.40;99.90;;;;;;5050917;28;20037;-82
2022/06/04 11:31:33;;;;;;;4.63;3.15;;;21.40;99.90;;;;;;5051969;28;20048;-83
2022/06/04 11:34:29;;;;;;;5.75;2.92;;;21.50;99.90;;;;;;5048434;28;20051;-84
2022/06/04 11:37:12;;;;;;;8.90;3.20;;;21.60;99.90;;;;;;5041717;28;20127;-84
2022/06/04 11:40:03;;;;;;;6.20;3.20;;;21.50;99.90;;;;;;5047540;28;20033;-84
2022/06/04 11:42:58;;;;;;;5.75;3.28;;;21.70;99.90;;;;;;5049005;28;20068;-83
2022/06/04 11:46:03;;;;;;;7.75;3.20;;;21.70;99.90;;;;;;5048161;28;20060;-80
2022/06/04 11:49:19;;;;;;;7.20;3.35;;;21.90;99.90;;;;;;5045354;28;20041;-84
2022/06/04 11:51:50;;;;;;;4.93;2.97;;;21.70;99.90;;;;;;4994265;28;20526;-81
2022/06/04 11:54:44;;;;;;;6.05;3.60;;;22.10;99.90;;;;;;5009010;28;20057;-84
2022/06/04 11:57:21;;;;;;;7.25;3.58;;;22.20;99.90;;;;;;5023917;28;20057;-84
2022/06/04 12:00:13;;;;;;;14.93;3.63;;;22.00;99.90;;;;;;5051005;28;20045;-84
2022/06/04 12:02:53;;;;;;;6.28;3.50;;;22.30;99.90;;;;;;5032584;28;20148;-83
2022/06/04 12:05:37;;;;;;;6.32;3.30;;;22.40;99.90;;;;;;5050596;28;20037;-82
2022/06/04 12:08:08;;;;;;;;;;;22.40;99.90;;;;;;5049347;28;20155;-83
2022/06/04 12:10:37;;;;;;;4.20;3.42;;;22.70;99.90;;;;;;5041946;28;20007;-83
2022/06/04 12:13:30;;;;;;;7.53;3.70;;;22.80;99.90;;;;;;5029570;28;20148;-84
2022/06/04 12:16:05;;;;;;;4.40;3.30;;;22.80;99.90;;;;;;5048453;28;20033;-84
2022/06/04 12:18:41;;;;;;;5.03;3.00;;;22.90;99.90;;;;;;5050266;28;20085;-82
2022/06/04 12:24:27;;;;;;;4.97;3.00;;;23.30;99.90;;;;;;5049020;28;20124;-81
2022/06/04 12:27:21;;;;;;;5.90;3.15;;;23.40;99.90;;;;;;5043412;28;20033;-82
2022/06/04 12:29:50;;;;;;;6.85;3.80;;;23.50;99.90;;;;;;5045082;28;20055;-82
2022/06/04 12:32:23;;;;;;;9.95;3.30;;;23.60;99.90;;;;;;5033052;28;20041;-81
2022/06/04 12:35:03;;;;;;;8.20;3.10;;;23.70;99.90;;;;;;5046178;28;20036;-81
2022/06/04 12:37:32;;;;;;;6.90;3.35;;;23.70;99.90;;;;;;5029026;28;20112;-83
2022/06/04 12:40:14;;;;;;;5.05;3.03;;;23.80;99.90;;;;;;5050236;28;20044;-83
2022/06/04 12:42:40;;;;;;;7.90;3.58;;;23.70;99.90;;;;;;5046706;28;20564;-83
2022/06/04 12:45:34;;;;;;;8.38;3.25;;;23.70;99.90;;;;;;5048569;28;20044;-82
2022/06/04 12:48:00;;;;;;;6.90;3.97;;;23.70;99.80;;;;;;5043187;28;20072;-83
2022/06/04 12:50:31;;;;;;;8.85;3.78;;;23.10;99.90;;;;;;5049179;28;20522;-82
2022/06/04 12:53:06;;;;;;;6.95;3.45;;;23.40;99.80;;;;;;5048882;28;20041;-82
2022/06/04 12:55:37;;;;;;;4.95;3.10;;;23.60;99.90;;;;;;5048490;28;20033;-84
2022/06/04 12:58:31;;;;;;;8.20;4.00;;;24.00;99.90;;;;;;5049038;28;20553;-82
2022/06/04 13:01:02;;;;;;;6.80;3.20;;;24.10;99.90;;;;;;5044125;28;20037;-83
2022/06/04 13:03:42;;;;;;;7.05;3.70;;;24.30;99.50;;;;;;5049839;28;20441;-83
2022/06/04 13:06:26;;;;;;;7.00;3.63;;;24.30;99.10;;;;;;5049732;28;20119;-81
2022/06/04 13:09:20;;;;;;;7.35;3.80;;;24.20;98.30;;;;;;5049513;28;20041;-81
2022/06/04 13:12:03;;;;;;;;;;;24.20;98.60;;;;;;5050883;28;20111;-82
2022/06/04 13:14:48;;;;;;;7.60;3.42;;;23.90;98.90;;;;;;5047445;28;19997;-82
2022/06/04 13:17:38;;;;;;;7.57;3.40;;;23.90;98.60;;;;;;5046753;28;20060;-83
2022/06/04 13:20:23;;;;;;;5.82;3.50;;;24.00;99.50;;;;;;5041382;28;20049;-82
2022/06/04 13:23:04;;;;;;;6.90;3.75;;;24.00;99.30;;;;;;5034319;28;20048;-81
2022/06/04 13:25:37;;;;;;;7.82;3.70;;;24.00;98.90;;;;;;5045783;28;20045;-82
2022/06/04 13:28:02;;;;;;;9.00;3.65;;;23.90;99.20;;;;;;5050209;28;20041;-82
2022/06/04 13:30:34;;;;;;;7.18;3.50;;;23.80;99.20;;;;;;5053143;28;20145;-85
2022/06/04 13:33:15;;;;;;;6.18;3.28;;;23.80;99.30;;;;;;5046177;28;20044;-81